Daniels, Maryland
Current Conditions -  °F | °C
As of 4:54 PM on Monday 22 Dec 2014 (Local Time) from KBWI Reporting Station
Light Rain Light Rain  
Wind Chill: 31°   Ceiling: 1400
Heat Index: 35°   Visibility: 1.2mi
Dew Point: 33°   Wind: 5mph
Humidity: 92%   Direction: 310°NW
Pressure: 30.16"   Gusts: NA
Location:  39.2601°N, 76.7979°W
Report Text: KBWI 222154Z 31004KT 1 1/4SM -RA BR FEW007 OVC014 02/01 A3016 RMK AO2 DZE35RAB35 SLP216 P0001 T00170006
Loading
Personal Weather Stations






























Interactive Weather Map New forecast layout! Learn more

10-Day Weather Forecast

Advertisements
Track Severe Weather on mobile